createdAt,value
2023-02-18T00:01:30.859Z,6.40
2023-02-18T00:03:59.218Z,6.40
2023-02-18T00:06:30.314Z,6.40
2023-02-18T00:09:01.718Z,6.40
2023-02-18T00:11:32.661Z,6.50
2023-02-18T00:14:01.662Z,6.50
2023-02-18T00:16:31.424Z,6.40
2023-02-18T00:19:00.713Z,6.40
2023-02-18T00:21:28.872Z,6.50
2023-02-18T00:23:57.144Z,6.50
2023-02-18T00:26:25.217Z,6.50
2023-02-18T00:28:54.829Z,6.50
2023-02-18T00:31:23.956Z,6.50
2023-02-18T00:33:52.033Z,6.50
2023-02-18T00:36:20.627Z,6.50
2023-02-18T00:38:49.107Z,6.50
2023-02-18T00:41:17.358Z,6.60
2023-02-18T00:43:45.625Z,6.60
2023-02-18T00:46:15.209Z,6.60
2023-02-18T00:48:45.859Z,6.60
2023-02-18T00:51:15.551Z,6.60
2023-02-18T00:53:43.617Z,6.60
2023-02-18T00:56:11.578Z,6.60
2023-02-18T00:58:39.610Z,6.70
2023-02-18T01:01:08.335Z,6.70
2023-02-18T01:03:40.905Z,6.70
2023-02-18T01:06:09.656Z,6.70
2023-02-18T01:08:38.004Z,6.70
2023-02-18T01:11:06.639Z,6.70
2023-02-18T01:13:34.819Z,6.70
2023-02-18T01:16:02.814Z,6.70
2023-02-18T01:18:31.212Z,6.80
2023-02-18T01:21:00.838Z,6.80
2023-02-18T01:23:29.233Z,6.80
2023-02-18T01:25:58.313Z,6.80
2023-02-18T01:28:26.766Z,6.80
2023-02-18T01:30:55.049Z,6.80
2023-02-18T01:33:23.212Z,6.80
2023-02-18T01:35:51.481Z,6.80
2023-02-18T01:38:20.828Z,6.80
2023-02-18T01:40:51.345Z,6.80
2023-02-18T01:43:19.904Z,6.80
2023-02-18T01:46:08.917Z,6.90
2023-02-18T01:48:39.719Z,6.90
2023-02-18T01:51:10.406Z,6.90
2023-02-18T01:53:41.169Z,6.90
2023-02-18T01:56:12.234Z,6.80
2023-02-18T01:58:40.298Z,6.80
2023-02-18T02:01:08.353Z,6.90
2023-02-18T02:03:38.227Z,6.90
2023-02-18T02:06:10.723Z,6.90
2023-02-18T02:08:40.609Z,6.90
2023-02-18T02:11:13.287Z,6.80
2023-02-18T02:13:49.059Z,6.90
2023-02-18T02:16:20.736Z,6.90
2023-02-18T02:18:55.447Z,6.90
2023-02-18T02:21:43.150Z,6.90
2023-02-18T02:24:24.987Z,6.90
2023-02-18T02:27:13.351Z,6.90
2023-02-18T02:29:49.663Z,6.90
2023-02-18T02:32:39.100Z,6.90
2023-02-18T02:35:09.592Z,6.90
2023-02-18T02:37:42.194Z,6.90
2023-02-18T02:40:16.887Z,6.90
2023-02-18T02:42:48.197Z,6.90
2023-02-18T02:45:19.514Z,6.90
2023-02-18T02:47:50.889Z,6.90
2023-02-18T02:50:21.931Z,6.90
2023-02-18T02:52:53.455Z,6.90
2023-02-18T02:55:21.501Z,6.90
2023-02-18T02:57:51.354Z,6.90
2023-02-18T03:00:20.417Z,7.00
2023-02-18T03:02:59.336Z,6.90
2023-02-18T03:05:33.042Z,6.90
2023-02-18T03:08:05.858Z,7.00
2023-02-18T03:10:40.661Z,6.90
2023-02-18T03:13:11.442Z,7.00
2023-02-18T03:15:43.981Z,7.00
2023-02-18T03:18:17.224Z,7.00
2023-02-18T03:20:49.318Z,7.00
2023-02-18T03:23:21.648Z,7.00
2023-02-18T03:25:50.200Z,7.00
2023-02-18T03:28:22.229Z,7.00
2023-02-18T03:30:52.150Z,7.00
2023-02-18T03:33:24.624Z,7.00
2023-02-18T03:35:55.837Z,7.00
2023-02-18T03:38:25.689Z,7.00
2023-02-18T03:40:53.698Z,7.10
2023-02-18T03:43:21.694Z,7.00
2023-02-18T03:45:49.692Z,7.10
2023-02-18T03:48:17.656Z,7.10
2023-02-18T03:50:45.664Z,7.10
2023-02-18T03:53:15.302Z,7.10
2023-02-18T03:55:43.678Z,7.10
2023-02-18T03:58:11.714Z,7.10
2023-02-18T04:00:39.711Z,7.10
2023-02-18T04:03:07.662Z,7.10
2023-02-18T04:05:36.042Z,7.10
2023-02-18T04:08:04.172Z,7.10
2023-02-18T04:10:33.597Z,7.10
2023-02-18T04:13:01.573Z,7.10
2023-02-18T04:15:29.553Z,7.10
2023-02-18T04:17:57.570Z,7.10
2023-02-18T04:20:25.568Z,7.10
2023-02-18T04:22:53.528Z,7.10
2023-02-18T04:25:21.594Z,7.20
2023-02-18T04:27:50.917Z,7.20
2023-02-18T04:30:20.019Z,7.10
2023-02-18T04:32:48.336Z,7.10
2023-02-18T04:35:16.477Z,7.10
2023-02-18T04:37:44.448Z,7.10
2023-02-18T04:40:12.850Z,7.10
2023-02-18T04:42:40.831Z,7.10
2023-02-18T04:45:10.512Z,7.10
2023-02-18T04:47:38.533Z,7.10
2023-02-18T04:50:07.221Z,7.10
2023-02-18T04:52:35.202Z,7.20
2023-02-18T04:55:03.195Z,7.10
2023-02-18T04:57:31.187Z,7.20
2023-02-18T04:59:59.217Z,7.20
2023-02-18T05:02:28.565Z,7.20
2023-02-18T05:04:56.645Z,7.20
2023-02-18T05:07:27.228Z,7.20
2023-02-18T05:09:55.214Z,7.20
2023-02-18T05:12:23.185Z,7.20
2023-02-18T05:14:51.280Z,7.30
2023-02-18T05:17:19.271Z,7.20
2023-02-18T05:19:48.603Z,7.30
2023-02-18T05:22:16.647Z,7.30
2023-02-18T05:24:44.596Z,7.30
2023-02-18T05:27:12.772Z,7.30
2023-02-18T05:29:40.757Z,7.30
2023-02-18T05:32:08.760Z,7.30
2023-02-18T05:34:36.727Z,7.40
2023-02-18T05:37:06.131Z,7.40
2023-02-18T05:39:36.165Z,7.40
2023-02-18T05:42:04.438Z,7.40
2023-02-18T05:44:33.319Z,7.40
2023-02-18T05:47:04.851Z,7.40
2023-02-18T05:49:33.517Z,7.40
2023-02-18T05:52:01.703Z,7.40
2023-02-18T05:54:31.121Z,7.40
2023-02-18T05:56:59.205Z,7.40
2023-02-18T05:59:27.215Z,7.40
2023-02-18T06:01:55.272Z,7.40
2023-02-18T06:04:23.317Z,7.40
2023-02-18T06:06:51.371Z,7.40
2023-02-18T06:09:19.385Z,7.40
2023-02-18T06:11:48.782Z,7.40
2023-02-18T06:14:16.760Z,7.40
2023-02-18T06:16:44.772Z,7.40
2023-02-18T06:19:12.713Z,7.40
2023-02-18T06:21:40.773Z,7.40
2023-02-18T06:24:08.837Z,7.40
2023-02-18T06:26:36.886Z,7.40
2023-02-18T06:29:06.328Z,7.40
2023-02-18T06:31:34.401Z,7.40
2023-02-18T06:34:04.056Z,7.40
2023-02-18T06:36:32.213Z,7.40
2023-02-18T06:39:00.226Z,7.40
2023-02-18T06:41:30.733Z,7.40
2023-02-18T06:43:58.732Z,7.40
2023-02-18T06:46:28.099Z,7.50
2023-02-18T06:48:56.108Z,7.40
2023-02-18T06:51:24.252Z,7.40
2023-02-18T06:53:52.315Z,7.40
2023-02-18T06:56:20.312Z,7.50
2023-02-18T06:58:48.459Z,7.50
2023-02-18T07:01:17.879Z,7.50
2023-02-18T07:03:52.993Z,7.50
2023-02-18T07:06:21.040Z,7.50
2023-02-18T07:08:49.006Z,7.50
2023-02-18T07:11:17.044Z,7.50
2023-02-18T07:13:46.773Z,7.50
2023-02-18T07:16:14.759Z,7.50
2023-02-18T07:18:42.796Z,7.60
2023-02-18T07:21:12.138Z,7.60
2023-02-18T07:23:40.132Z,7.60
2023-02-18T07:26:08.757Z,7.60
2023-02-18T07:28:37.076Z,7.70
2023-02-18T07:31:05.813Z,7.70
2023-02-18T07:33:33.898Z,7.80
2023-02-18T07:36:02.736Z,7.80
2023-02-18T07:38:32.518Z,7.80
2023-02-18T07:41:00.833Z,7.80
2023-02-18T07:43:28.796Z,7.90
2023-02-18T07:45:57.032Z,8.00
2023-02-18T07:48:25.161Z,8.00
2023-02-18T07:50:53.263Z,8.10
2023-02-18T07:53:21.254Z,8.20
2023-02-18T07:55:52.578Z,8.30
2023-02-18T07:58:21.264Z,8.40
2023-02-18T08:00:50.336Z,8.40
2023-02-18T08:03:19.085Z,8.50
2023-02-18T08:05:48.860Z,8.60
2023-02-18T08:08:17.422Z,8.60
2023-02-18T08:10:45.542Z,8.70
2023-02-18T08:13:14.905Z,8.80
2023-02-18T08:15:43.056Z,8.90
2023-02-18T08:18:15.494Z,8.90
2023-02-18T08:20:43.500Z,9.00
2023-02-18T08:23:11.866Z,9.00
2023-02-18T08:25:39.855Z,9.10
2023-02-18T08:28:07.896Z,9.10
2023-02-18T08:30:37.910Z,9.20
2023-02-18T08:33:07.225Z,9.20
2023-02-18T08:35:39.005Z,9.30
2023-02-18T08:38:07.114Z,9.30
2023-02-18T08:40:35.251Z,9.40
2023-02-18T08:43:03.440Z,9.80
2023-02-18T08:45:31.496Z,9.40
2023-02-18T08:48:17.200Z,9.40
2023-02-18T08:50:47.098Z,9.40
2023-02-18T08:53:15.101Z,9.50
2023-02-18T08:55:43.674Z,9.50
2023-02-18T08:58:12.571Z,9.50
2023-02-18T09:00:41.138Z,9.60
2023-02-18T09:03:11.951Z,9.60
2023-02-18T09:05:40.221Z,9.60
2023-02-18T09:08:08.219Z,9.60
2023-02-18T09:10:40.484Z,9.60
2023-02-18T09:13:08.585Z,9.70
2023-02-18T09:15:37.184Z,9.60
2023-02-18T09:18:12.139Z,9.70
2023-02-18T09:20:41.107Z,9.70
2023-02-18T09:23:12.102Z,9.70
2023-02-18T09:25:40.755Z,9.70
2023-02-18T09:28:11.943Z,9.70
2023-02-18T09:30:42.298Z,9.80
2023-02-18T09:33:10.696Z,9.70
2023-02-18T09:35:41.776Z,9.70
2023-02-18T09:38:10.950Z,9.70
2023-02-18T09:40:40.426Z,9.70
2023-02-18T09:43:08.457Z,9.70
2023-02-18T09:45:36.536Z,9.70
2023-02-18T09:48:05.515Z,9.70
2023-02-18T09:50:34.709Z,9.70
2023-02-18T09:53:05.048Z,9.70
2023-02-18T09:55:34.053Z,9.70
2023-02-18T09:58:02.966Z,9.70
2023-02-18T10:00:32.813Z,9.70
2023-02-18T10:03:02.757Z,9.70
2023-02-18T10:05:31.837Z,9.60
2023-02-18T10:08:06.640Z,9.60
2023-02-18T10:10:37.743Z,9.60
2023-02-18T10:13:05.864Z,9.60
2023-02-18T10:15:34.249Z,9.60
2023-02-18T10:18:04.132Z,9.60
2023-02-18T10:20:33.151Z,9.60
2023-02-18T10:23:02.338Z,9.60
2023-02-18T10:25:32.813Z,9.60
2023-02-18T10:28:01.700Z,9.60
2023-02-18T10:30:32.152Z,9.60
2023-02-18T10:33:02.352Z,9.50
2023-02-18T10:35:32.277Z,9.60
2023-02-18T10:38:07.480Z,9.60
2023-02-18T10:40:43.923Z,9.60
2023-02-18T10:43:16.942Z,9.60
2023-02-18T10:45:49.315Z,9.60
2023-02-18T10:48:25.013Z,9.60
2023-02-18T10:50:53.622Z,9.60
2023-02-18T10:53:25.180Z,9.60
2023-02-18T10:55:56.679Z,9.50
2023-02-18T10:58:34.618Z,9.50
2023-02-18T11:01:05.147Z,9.50
2023-02-18T11:03:43.804Z,9.60
2023-02-18T11:06:20.905Z,9.60
2023-02-18T11:08:49.336Z,9.60
2023-02-18T11:11:21.088Z,9.50
2023-02-18T11:13:53.638Z,9.60
2023-02-18T11:16:22.940Z,9.60
2023-02-18T11:18:50.942Z,9.60
2023-02-18T11:21:30.293Z,9.60
2023-02-18T11:23:58.841Z,9.60
2023-02-18T11:26:31.581Z,9.60
2023-02-18T11:29:01.650Z,9.60
2023-02-18T11:31:37.198Z,9.60
2023-02-18T11:34:05.580Z,9.60
2023-02-18T11:36:35.197Z,9.60
2023-02-18T11:39:06.271Z,9.60
2023-02-18T11:41:37.258Z,9.60
2023-02-18T11:44:06.508Z,9.60
2023-02-18T11:46:34.529Z,9.60
2023-02-18T11:49:17.350Z,9.60
2023-02-18T11:51:45.520Z,9.70
2023-02-18T11:54:23.469Z,9.70
2023-02-18T11:56:58.202Z,9.70
2023-02-18T11:59:26.394Z,9.70
2023-02-18T12:01:58.116Z,9.70
2023-02-18T12:04:29.410Z,9.70
2023-02-18T12:07:04.377Z,9.70
2023-02-18T12:09:37.143Z,9.70
2023-02-18T12:12:08.140Z,9.70
2023-02-18T12:14:38.504Z,9.70
2023-02-18T12:17:23.506Z,9.70
2023-02-18T12:20:03.259Z,9.70
2023-02-18T12:22:38.858Z,9.70
2023-02-18T12:25:15.729Z,9.70
2023-02-18T12:27:53.057Z,9.70
2023-02-18T12:30:29.032Z,9.70
2023-02-18T12:33:00.934Z,9.70
2023-02-18T12:35:44.680Z,9.70
2023-02-18T12:38:30.897Z,9.70
2023-02-18T12:41:08.465Z,9.70
2023-02-18T12:43:45.414Z,9.80
2023-02-18T12:46:23.024Z,9.80
2023-02-18T12:48:59.282Z,9.80
2023-02-18T12:51:32.984Z,9.80
2023-02-18T12:54:07.153Z,9.80
2023-02-18T12:56:46.821Z,9.80
2023-02-18T12:59:21.842Z,9.90
2023-02-18T13:01:54.107Z,9.90
2023-02-18T13:04:44.375Z,9.90
2023-02-18T13:07:25.231Z,9.90
2023-02-18T13:10:12.254Z,10.00
2023-02-18T13:12:46.085Z,10.00
2023-02-18T13:15:18.701Z,10.00
2023-02-18T13:17:47.123Z,10.00
2023-02-18T13:20:18.133Z,10.00
2023-02-18T13:22:49.970Z,10.00
2023-02-18T13:25:20.962Z,10.10
2023-02-18T13:27:53.345Z,10.10
2023-02-18T13:30:25.459Z,10.10
2023-02-18T13:32:58.870Z,10.10
2023-02-18T13:35:33.996Z,10.10
2023-02-18T13:38:12.850Z,10.10
2023-02-18T13:40:41.689Z,10.20
2023-02-18T13:43:20.206Z,10.20
2023-02-18T13:46:03.106Z,10.20
2023-02-18T13:48:35.157Z,10.20
2023-02-18T13:51:04.532Z,10.20
2023-02-18T13:53:33.451Z,10.20
2023-02-18T13:56:06.068Z,10.20
2023-02-18T13:58:37.330Z,10.20
2023-02-18T14:01:06.780Z,10.20
2023-02-18T14:03:38.233Z,10.20
2023-02-18T14:06:16.300Z,10.20
2023-02-18T14:08:44.905Z,10.20
2023-02-18T14:11:28.048Z,10.30
2023-02-18T14:13:56.677Z,10.40
2023-02-18T14:16:24.644Z,10.60
2023-02-18T14:18:58.011Z,10.80
2023-02-18T14:21:39.707Z,10.90
2023-02-18T14:24:08.561Z,10.90
2023-02-18T14:26:40.536Z,10.80
2023-02-18T14:29:12.403Z,10.70
2023-02-18T14:31:46.190Z,10.60
2023-02-18T14:34:28.310Z,10.60
2023-02-18T14:37:05.860Z,10.60
2023-02-18T14:39:39.507Z,10.50
2023-02-18T14:42:12.234Z,10.50
2023-02-18T14:44:48.299Z,10.50
2023-02-18T14:47:22.767Z,10.50
2023-02-18T14:49:53.127Z,10.40
2023-02-18T14:52:24.469Z,10.40
2023-02-18T14:54:57.966Z,10.30
2023-02-18T14:57:32.608Z,10.30
2023-02-18T15:00:01.016Z,10.30
2023-02-18T15:02:30.954Z,10.30
2023-02-18T15:05:12.318Z,10.20
2023-02-18T15:07:40.336Z,10.20
2023-02-18T15:10:14.692Z,10.20
2023-02-18T15:12:42.912Z,10.20
2023-02-18T15:15:14.803Z,10.20
2023-02-18T15:17:46.056Z,10.20
2023-02-18T15:20:16.089Z,10.10
2023-02-18T15:22:44.727Z,10.10
2023-02-18T15:25:13.797Z,10.10
2023-02-18T15:27:44.325Z,10.00
2023-02-18T15:30:20.760Z,10.00
2023-02-18T15:32:51.823Z,9.90
2023-02-18T15:35:22.911Z,9.90
2023-02-18T15:37:53.583Z,9.90
2023-02-18T15:40:22.539Z,9.80
2023-02-18T15:42:51.672Z,9.90
2023-02-18T15:45:20.786Z,9.90
2023-02-18T15:47:49.800Z,9.80
2023-02-18T15:50:19.035Z,9.80
2023-02-18T15:52:48.704Z,9.80
2023-02-18T15:55:20.836Z,9.80
2023-02-18T15:57:50.218Z,9.70
2023-02-18T16:00:20.686Z,9.70
2023-02-18T16:02:54.114Z,9.70
2023-02-18T16:05:25.281Z,9.70
2023-02-18T16:07:58.362Z,9.60
2023-02-18T16:10:37.143Z,9.60
2023-02-18T16:13:06.090Z,9.60
2023-02-18T16:15:38.674Z,9.60
2023-02-18T16:18:07.093Z,9.50
2023-02-18T16:20:36.547Z,9.50
2023-02-18T16:23:11.782Z,9.50
2023-02-18T16:25:43.847Z,9.50
2023-02-18T16:28:16.550Z,9.40
2023-02-18T16:30:46.128Z,9.40
2023-02-18T16:33:14.225Z,9.40
2023-02-18T16:35:50.962Z,9.40
2023-02-18T16:38:21.508Z,9.30
2023-02-18T16:40:49.538Z,9.30
2023-02-18T16:43:18.358Z,9.20
2023-02-18T16:45:49.171Z,9.20
2023-02-18T16:48:20.615Z,9.20
2023-02-18T16:50:50.572Z,9.20
2023-02-18T16:53:20.617Z,9.10
2023-02-18T16:55:50.325Z,9.10
2023-02-18T16:58:18.327Z,9.00
2023-02-18T17:00:47.223Z,9.00
2023-02-18T17:03:16.666Z,9.00
2023-02-18T17:05:48.029Z,8.90
2023-02-18T17:08:18.657Z,8.90
2023-02-18T17:10:48.591Z,8.90
2023-02-18T17:13:16.999Z,8.90
2023-02-18T17:15:47.574Z,8.80
2023-02-18T17:18:15.845Z,8.80
2023-02-18T17:20:43.878Z,8.80
2023-02-18T17:23:14.401Z,8.80
2023-02-18T17:25:42.917Z,8.80
2023-02-18T17:28:12.215Z,8.80
2023-02-18T17:30:41.279Z,8.70
2023-02-18T17:33:12.264Z,8.70
2023-02-18T17:35:40.339Z,8.70
2023-02-18T17:38:11.258Z,8.70
2023-02-18T17:40:39.471Z,8.70
2023-02-18T17:43:07.425Z,8.70
2023-02-18T17:45:37.942Z,8.60
2023-02-18T17:48:06.295Z,8.60
2023-02-18T17:50:34.278Z,8.60
2023-02-18T17:53:02.282Z,8.60
2023-02-18T17:55:31.178Z,8.90
2023-02-18T17:57:59.461Z,8.50
2023-02-18T18:00:28.307Z,8.50
2023-02-18T18:02:57.878Z,8.40
2023-02-18T18:05:26.709Z,8.40
2023-02-18T18:07:54.716Z,8.40
2023-02-18T18:10:25.344Z,8.30
2023-02-18T18:12:53.391Z,8.30
2023-02-18T18:15:26.378Z,8.30
2023-02-18T18:17:54.653Z,8.30
2023-02-18T18:20:24.735Z,8.20
2023-02-18T18:22:52.952Z,8.30
2023-02-18T18:25:26.074Z,8.20
2023-02-18T18:27:54.632Z,8.20
2023-02-18T18:30:23.657Z,8.20
2023-02-18T18:32:52.035Z,8.10
2023-02-18T18:35:25.904Z,8.10
2023-02-18T18:37:54.245Z,8.10
2023-02-18T18:40:23.299Z,8.10
2023-02-18T18:42:51.381Z,8.10
2023-02-18T18:45:21.088Z,8.10
2023-02-18T18:47:49.989Z,8.10
2023-02-18T18:50:18.313Z,8.10
2023-02-18T18:52:48.444Z,8.10
2023-02-18T18:55:37.813Z,8.10
2023-02-18T19:00:48.440Z,8.10
2023-02-18T19:03:16.462Z,8.10
2023-02-18T19:05:46.005Z,8.10
2023-02-18T19:08:16.807Z,8.00
2023-02-18T19:10:45.942Z,8.00
2023-02-18T19:13:14.741Z,7.90
2023-02-18T19:15:43.282Z,7.90
2023-02-18T19:18:13.393Z,7.90
2023-02-18T19:20:42.985Z,7.90
2023-02-18T19:23:11.379Z,7.90
2023-02-18T19:25:41.171Z,7.80
2023-02-18T19:28:11.193Z,7.80
2023-02-18T19:30:40.391Z,7.80
2023-02-18T19:33:08.759Z,7.80
2023-02-18T19:35:40.136Z,7.70
2023-02-18T19:38:08.650Z,7.70
2023-02-18T19:40:37.000Z,7.70
2023-02-18T19:43:06.365Z,7.70
2023-02-18T19:45:34.585Z,7.60
2023-02-18T19:48:02.851Z,7.60
2023-02-18T19:50:31.647Z,7.60
2023-02-18T19:53:00.100Z,7.60
2023-02-18T19:55:28.165Z,7.60
2023-02-18T19:57:56.133Z,7.60
2023-02-18T20:00:25.514Z,7.60
2023-02-18T20:02:53.526Z,7.50
2023-02-18T20:05:21.520Z,7.50
2023-02-18T20:07:49.728Z,7.50
2023-02-18T20:10:20.043Z,7.50
2023-02-18T20:12:52.101Z,7.50
2023-02-18T20:15:22.811Z,7.60
2023-02-18T20:17:52.281Z,7.40
2023-02-18T20:20:20.604Z,7.40
2023-02-18T20:22:48.610Z,7.40
2023-02-18T20:25:16.658Z,7.40
2023-02-18T20:27:59.908Z,7.40
2023-02-18T20:30:28.801Z,7.40
2023-02-18T20:32:58.248Z,7.40
2023-02-18T20:35:26.271Z,7.40
2023-02-18T20:37:54.517Z,7.40
2023-02-18T20:40:22.654Z,7.40
2023-02-18T20:42:50.818Z,7.40
2023-02-18T20:45:19.033Z,7.40
2023-02-18T20:47:48.836Z,7.40
2023-02-18T20:50:18.347Z,7.40
2023-02-18T20:52:46.567Z,7.40
2023-02-18T20:55:14.536Z,7.40
2023-02-18T20:57:42.516Z,7.40
2023-02-18T21:00:11.718Z,7.40
2023-02-18T21:02:39.967Z,7.40
2023-02-18T21:05:08.192Z,7.40
2023-02-18T21:07:37.588Z,7.40
2023-02-18T21:10:06.643Z,7.40
2023-02-18T21:12:34.603Z,7.40
2023-02-18T21:15:02.602Z,7.40
2023-02-18T21:17:30.822Z,7.40
2023-02-18T21:20:00.760Z,7.30
2023-02-18T21:22:28.742Z,7.40
2023-02-18T21:25:02.905Z,7.40
2023-02-18T21:27:30.893Z,7.30
2023-02-18T21:29:59.611Z,7.40
2023-02-18T21:32:27.830Z,7.30
2023-02-18T21:35:02.082Z,7.30
2023-02-18T21:37:30.116Z,7.30
2023-02-18T21:40:00.196Z,7.30
2023-02-18T21:42:29.632Z,7.30
2023-02-18T21:44:57.598Z,7.30
2023-02-18T21:47:25.596Z,7.30
2023-02-18T21:49:57.881Z,7.30
2023-02-18T21:52:27.469Z,7.30
2023-02-18T21:54:55.433Z,7.30
2023-02-18T21:57:23.374Z,7.30
2023-02-18T21:59:52.820Z,7.20
2023-02-18T22:02:22.223Z,7.20
2023-02-18T22:04:50.869Z,7.20
2023-02-18T22:07:19.460Z,7.20
2023-02-18T22:09:48.671Z,7.20
2023-02-18T22:12:17.238Z,7.10
2023-02-18T22:14:45.531Z,7.10
2023-02-18T22:17:16.039Z,7.10
2023-02-18T22:19:44.289Z,7.10
2023-02-18T22:22:12.328Z,7.10
2023-02-18T22:24:40.294Z,7.10
2023-02-18T22:27:08.295Z,7.10
2023-02-18T22:29:36.241Z,7.10
2023-02-18T22:32:04.668Z,7.10
2023-02-18T22:34:34.094Z,7.10
2023-02-18T22:37:03.989Z,7.10
2023-02-18T22:39:31.943Z,7.10
2023-02-18T22:42:00.114Z,7.10
2023-02-18T22:44:28.074Z,7.10
2023-02-18T22:46:56.055Z,7.10
2023-02-18T22:49:24.061Z,7.20
2023-02-18T22:51:54.161Z,7.20
2023-02-18T22:54:22.511Z,7.20
2023-02-18T22:56:50.544Z,7.20
2023-02-18T22:59:19.202Z,7.20
2023-02-18T23:01:49.834Z,7.20
2023-02-18T23:04:18.873Z,7.20
2023-02-18T23:06:47.578Z,7.20
2023-02-18T23:09:22.083Z,7.20
2023-02-18T23:11:50.494Z,7.30
2023-02-18T23:14:21.699Z,7.30
2023-02-18T23:17:08.366Z,7.30
2023-02-18T23:19:37.182Z,7.30
2023-02-18T23:22:05.803Z,7.30
2023-02-18T23:24:35.939Z,7.30
2023-02-18T23:27:04.530Z,7.30
2023-02-18T23:29:32.680Z,7.30
2023-02-18T23:32:00.820Z,7.20
2023-02-18T23:34:28.842Z,7.20
2023-02-18T23:36:56.963Z,7.20
2023-02-18T23:39:27.856Z,7.10
2023-02-18T23:41:57.270Z,7.10
2023-02-18T23:44:25.907Z,7.10
2023-02-18T23:46:54.202Z,7.10
2023-02-18T23:49:23.178Z,7.00
2023-02-18T23:51:51.590Z,7.00
2023-02-18T23:54:19.762Z,7.00
2023-02-18T23:56:47.924Z,6.90
2023-02-18T23:59:17.269Z,6.90
